sensor_id;sensor_type;location;lat;lon;timestamp;temperature;humidity
12907;DHT22;6521;50.498;8.474;2022-12-07T00:02:17;2.27;97.56
12907;DHT22;6521;50.498;8.474;2022-12-07T00:04:49;2.31;97.37
12907;DHT22;6521;50.498;8.474;2022-12-07T00:07:20;2.30;97.38
12907;DHT22;6521;50.498;8.474;2022-12-07T00:09:50;2.31;97.32
12907;DHT22;6521;50.498;8.474;2022-12-07T00:12:21;2.28;97.30
12907;DHT22;6521;50.498;8.474;2022-12-07T00:14:52;2.27;97.34
12907;DHT22;6521;50.498;8.474;2022-12-07T00:17:23;2.31;97.32
12907;DHT22;6521;50.498;8.474;2022-12-07T00:19:53;2.34;97.25
12907;DHT22;6521;50.498;8.474;2022-12-07T00:22:24;2.37;97.16
12907;DHT22;6521;50.498;8.474;2022-12-07T00:24:55;2.40;97.13
12907;DHT22;6521;50.498;8.474;2022-12-07T00:27:27;2.36;97.06
12907;DHT22;6521;50.498;8.474;2022-12-07T00:29:58;2.38;97.10
12907;DHT22;6521;50.498;8.474;2022-12-07T00:32:28;2.37;97.15
12907;DHT22;6521;50.498;8.474;2022-12-07T00:34:59;2.36;97.23
12907;DHT22;6521;50.498;8.474;2022-12-07T00:37:30;2.38;97.16
12907;DHT22;6521;50.498;8.474;2022-12-07T00:40:01;2.45;97.08
12907;DHT22;6521;50.498;8.474;2022-12-07T00:42:32;2.42;96.98
12907;DHT22;6521;50.498;8.474;2022-12-07T00:45:03;2.44;96.96
12907;DHT22;6521;50.498;8.474;2022-12-07T00:47:34;2.50;96.90
12907;DHT22;6521;50.498;8.474;2022-12-07T00:50:05;2.44;96.76
12907;DHT22;6521;50.498;8.474;2022-12-07T00:52:36;2.44;96.77
12907;DHT22;6521;50.498;8.474;2022-12-07T00:55:07;2.40;96.87
12907;DHT22;6521;50.498;8.474;2022-12-07T00:57:38;2.44;96.88
12907;DHT22;6521;50.498;8.474;2022-12-07T01:00:08;2.44;96.75
12907;DHT22;6521;50.498;8.474;2022-12-07T01:02:39;2.48;96.78
12907;DHT22;6521;50.498;8.474;2022-12-07T01:05:10;2.45;96.88
12907;DHT22;6521;50.498;8.474;2022-12-07T01:07:41;2.42;96.79
12907;DHT22;6521;50.498;8.474;2022-12-07T01:10:12;2.48;96.82
12907;DHT22;6521;50.498;8.474;2022-12-07T01:12:43;2.47;96.66
12907;DHT22;6521;50.498;8.474;2022-12-07T01:15:14;2.42;96.77
12907;DHT22;6521;50.498;8.474;2022-12-07T01:17:45;2.41;96.89
12907;DHT22;6521;50.498;8.474;2022-12-07T01:20:16;2.42;96.82
12907;DHT22;6521;50.498;8.474;2022-12-07T01:22:47;2.45;96.77
12907;DHT22;6521;50.498;8.474;2022-12-07T01:25:18;2.51;96.67
12907;DHT22;6521;50.498;8.474;2022-12-07T01:27:48;2.44;96.69
12907;DHT22;6521;50.498;8.474;2022-12-07T01:30:19;2.47;96.73
12907;DHT22;6521;50.498;8.474;2022-12-07T01:32:50;2.48;96.57
12907;DHT22;6521;50.498;8.474;2022-12-07T01:35:21;2.50;96.54
12907;DHT22;6521;50.498;8.474;2022-12-07T01:37:51;2.44;96.55
12907;DHT22;6521;50.498;8.474;2022-12-07T01:40:22;2.48;96.55
12907;DHT22;6521;50.498;8.474;2022-12-07T01:42:53;2.51;96.27
12907;DHT22;6521;50.498;8.474;2022-12-07T01:45:40;2.51;96.28
12907;DHT22;6521;50.498;8.474;2022-12-07T01:48:14;2.48;96.32
12907;DHT22;6521;50.498;8.474;2022-12-07T01:50:48;2.47;96.22
12907;DHT22;6521;50.498;8.474;2022-12-07T01:53:24;2.44;96.33
12907;DHT22;6521;50.498;8.474;2022-12-07T01:55:56;2.47;96.42
12907;DHT22;6521;50.498;8.474;2022-12-07T01:58:28;2.48;96.36
12907;DHT22;6521;50.498;8.474;2022-12-07T02:00:59;2.50;96.30
12907;DHT22;6521;50.498;8.474;2022-12-07T02:03:39;2.48;96.38
12907;DHT22;6521;50.498;8.474;2022-12-07T02:06:19;2.48;96.40
12907;DHT22;6521;50.498;8.474;2022-12-07T02:08:52;2.44;96.35
12907;DHT22;6521;50.498;8.474;2022-12-07T02:11:22;2.48;96.38
12907;DHT22;6521;50.498;8.474;2022-12-07T02:13:53;2.47;96.38
12907;DHT22;6521;50.498;8.474;2022-12-07T02:16:38;2.44;96.38
12907;DHT22;6521;50.498;8.474;2022-12-07T02:22:28;2.44;96.51
12907;DHT22;6521;50.498;8.474;2022-12-07T02:28:19;2.45;96.62
12907;DHT22;6521;50.498;8.474;2022-12-07T02:30:54;2.45;96.58
12907;DHT22;6521;50.498;8.474;2022-12-07T02:33:31;2.44;96.57
12907;DHT22;6521;50.498;8.474;2022-12-07T02:36:15;2.44;96.66
12907;DHT22;6521;50.498;8.474;2022-12-07T02:41:40;2.44;96.84
12907;DHT22;6521;50.498;8.474;2022-12-07T02:44:17;2.47;96.61
12907;DHT22;6521;50.498;8.474;2022-12-07T02:47:05;2.45;96.75
12907;DHT22;6521;50.498;8.474;2022-12-07T02:49:38;2.41;96.87
12907;DHT22;6521;50.498;8.474;2022-12-07T02:52:10;2.44;96.85
12907;DHT22;6521;50.498;8.474;2022-12-07T02:54:41;2.47;96.85
12907;DHT22;6521;50.498;8.474;2022-12-07T03:00:13;2.48;96.95
12907;DHT22;6521;50.498;8.474;2022-12-07T03:05:53;2.45;97.00
12907;DHT22;6521;50.498;8.474;2022-12-07T03:08:51;2.48;96.91
12907;DHT22;6521;50.498;8.474;2022-12-07T03:14:14;2.48;96.90
12907;DHT22;6521;50.498;8.474;2022-12-07T03:16:57;2.42;97.09
12907;DHT22;6521;50.498;8.474;2022-12-07T03:19:31;2.42;97.27
12907;DHT22;6521;50.498;8.474;2022-12-07T03:22:07;2.48;97.06
12907;DHT22;6521;50.498;8.474;2022-12-07T03:24:58;2.42;97.17
12907;DHT22;6521;50.498;8.474;2022-12-07T03:27:38;2.44;97.20
12907;DHT22;6521;50.498;8.474;2022-12-07T03:30:13;2.50;97.18
12907;DHT22;6521;50.498;8.474;2022-12-07T03:32:49;2.51;97.12
12907;DHT22;6521;50.498;8.474;2022-12-07T03:35:30;2.42;97.23
12907;DHT22;6521;50.498;8.474;2022-12-07T03:43:28;2.47;97.31
12907;DHT22;6521;50.498;8.474;2022-12-07T03:48:59;2.52;97.21
12907;DHT22;6521;50.498;8.474;2022-12-07T03:51:40;2.52;97.11
12907;DHT22;6521;50.498;8.474;2022-12-07T03:54:32;2.51;97.13
12907;DHT22;6521;50.498;8.474;2022-12-07T03:57:05;2.52;97.24
12907;DHT22;6521;50.498;8.474;2022-12-07T03:59:38;2.55;97.30
12907;DHT22;6521;50.498;8.474;2022-12-07T04:02:12;2.50;97.44
12907;DHT22;6521;50.498;8.474;2022-12-07T04:04:43;2.54;97.40
12907;DHT22;6521;50.498;8.474;2022-12-07T04:07:14;2.52;97.43
12907;DHT22;6521;50.498;8.474;2022-12-07T04:09:44;2.57;97.46
12907;DHT22;6521;50.498;8.474;2022-12-07T04:12:15;2.52;97.47
12907;DHT22;6521;50.498;8.474;2022-12-07T04:14:46;2.50;97.63
12907;DHT22;6521;50.498;8.474;2022-12-07T04:17:17;2.55;97.55
12907;DHT22;6521;50.498;8.474;2022-12-07T04:19:47;2.57;97.57
12907;DHT22;6521;50.498;8.474;2022-12-07T04:22:18;2.54;97.60
12907;DHT22;6521;50.498;8.474;2022-12-07T04:24:49;2.57;97.58
12907;DHT22;6521;50.498;8.474;2022-12-07T04:27:20;2.57;97.65
12907;DHT22;6521;50.498;8.474;2022-12-07T04:29:50;2.59;97.58
12907;DHT22;6521;50.498;8.474;2022-12-07T04:32:22;2.58;97.66
12907;DHT22;6521;50.498;8.474;2022-12-07T04:34:53;2.61;97.67
12907;DHT22;6521;50.498;8.474;2022-12-07T04:37:24;2.61;97.61
12907;DHT22;6521;50.498;8.474;2022-12-07T04:39:55;2.62;97.56
12907;DHT22;6521;50.498;8.474;2022-12-07T04:42:25;2.59;97.58
12907;DHT22;6521;50.498;8.474;2022-12-07T04:44:56;2.61;97.60
12907;DHT22;6521;50.498;8.474;2022-12-07T04:47:27;2.64;97.57
12907;DHT22;6521;50.498;8.474;2022-12-07T04:49:58;2.64;97.59
12907;DHT22;6521;50.498;8.474;2022-12-07T04:52:29;2.65;97.57
12907;DHT22;6521;50.498;8.474;2022-12-07T04:54:59;2.65;97.58
12907;DHT22;6521;50.498;8.474;2022-12-07T04:57:31;2.66;97.62
12907;DHT22;6521;50.498;8.474;2022-12-07T05:00:02;2.66;97.60
12907;DHT22;6521;50.498;8.474;2022-12-07T05:02:33;2.72;97.55
12907;DHT22;6521;50.498;8.474;2022-12-07T05:05:04;2.69;97.52
12907;DHT22;6521;50.498;8.474;2022-12-07T05:07:35;2.72;97.60
12907;DHT22;6521;50.498;8.474;2022-12-07T05:10:06;2.69;97.58
12907;DHT22;6521;50.498;8.474;2022-12-07T05:12:37;2.72;97.57
12907;DHT22;6521;50.498;8.474;2022-12-07T05:15:08;2.72;97.56
12907;DHT22;6521;50.498;8.474;2022-12-07T05:17:39;2.74;97.56
12907;DHT22;6521;50.498;8.474;2022-12-07T05:20:10;2.78;97.64
12907;DHT22;6521;50.498;8.474;2022-12-07T05:22:41;2.78;97.68
12907;DHT22;6521;50.498;8.474;2022-12-07T05:25:12;2.78;97.65
12907;DHT22;6521;50.498;8.474;2022-12-07T05:27:43;2.81;97.61
12907;DHT22;6521;50.498;8.474;2022-12-07T05:30:13;2.82;97.68
12907;DHT22;6521;50.498;8.474;2022-12-07T05:32:44;2.87;97.61
12907;DHT22;6521;50.498;8.474;2022-12-07T05:35:16;2.81;97.68
12907;DHT22;6521;50.498;8.474;2022-12-07T05:37:47;2.85;97.63
12907;DHT22;6521;50.498;8.474;2022-12-07T05:40:18;2.81;97.67
12907;DHT22;6521;50.498;8.474;2022-12-07T05:42:49;2.82;97.72
12907;DHT22;6521;50.498;8.474;2022-12-07T05:45:20;2.85;97.74
12907;DHT22;6521;50.498;8.474;2022-12-07T05:47:50;2.87;97.80
12907;DHT22;6521;50.498;8.474;2022-12-07T05:50:21;2.84;97.70
12907;DHT22;6521;50.498;8.474;2022-12-07T05:53:04;2.82;97.79
12907;DHT22;6521;50.498;8.474;2022-12-07T05:55:35;2.84;97.84
12907;DHT22;6521;50.498;8.474;2022-12-07T05:58:06;2.81;97.83
12907;DHT22;6521;50.498;8.474;2022-12-07T06:00:55;2.84;97.90
12907;DHT22;6521;50.498;8.474;2022-12-07T06:03:26;2.89;97.77
12907;DHT22;6521;50.498;8.474;2022-12-07T06:05:57;2.89;97.78
12907;DHT22;6521;50.498;8.474;2022-12-07T06:08:28;2.87;97.70
12907;DHT22;6521;50.498;8.474;2022-12-07T06:10:58;2.88;97.71
12907;DHT22;6521;50.498;8.474;2022-12-07T06:13:48;2.81;97.74
12907;DHT22;6521;50.498;8.474;2022-12-07T06:16:19;2.82;97.82
12907;DHT22;6521;50.498;8.474;2022-12-07T06:18:49;2.88;97.75
12907;DHT22;6521;50.498;8.474;2022-12-07T06:21:21;2.88;97.78
12907;DHT22;6521;50.498;8.474;2022-12-07T06:23:52;2.89;97.73
12907;DHT22;6521;50.498;8.474;2022-12-07T06:26:23;2.87;97.71
12907;DHT22;6521;50.498;8.474;2022-12-07T06:28:54;2.82;97.72
12907;DHT22;6521;50.498;8.474;2022-12-07T06:31:25;2.87;97.77
12907;DHT22;6521;50.498;8.474;2022-12-07T06:34:03;2.87;97.71
12907;DHT22;6521;50.498;8.474;2022-12-07T06:36:34;2.92;97.52
12907;DHT22;6521;50.498;8.474;2022-12-07T06:39:05;2.92;97.50
12907;DHT22;6521;50.498;8.474;2022-12-07T06:41:37;2.92;97.43
12907;DHT22;6521;50.498;8.474;2022-12-07T06:44:08;2.89;97.50
12907;DHT22;6521;50.498;8.474;2022-12-07T06:46:39;2.87;97.48
12907;DHT22;6521;50.498;8.474;2022-12-07T06:49:10;2.84;97.66
12907;DHT22;6521;50.498;8.474;2022-12-07T06:51:41;2.85;97.63
12907;DHT22;6521;50.498;8.474;2022-12-07T06:54:14;2.84;97.58
12907;DHT22;6521;50.498;8.474;2022-12-07T06:56:45;2.78;97.71
12907;DHT22;6521;50.498;8.474;2022-12-07T06:59:16;2.85;97.66
12907;DHT22;6521;50.498;8.474;2022-12-07T07:01:46;2.84;97.58
12907;DHT22;6521;50.498;8.474;2022-12-07T07:04:17;2.82;97.57
12907;DHT22;6521;50.498;8.474;2022-12-07T07:06:48;2.84;97.57
12907;DHT22;6521;50.498;8.474;2022-12-07T07:09:19;2.79;97.47
12907;DHT22;6521;50.498;8.474;2022-12-07T07:11:50;2.79;97.36
12907;DHT22;6521;50.498;8.474;2022-12-07T07:14:20;2.75;97.43
12907;DHT22;6521;50.498;8.474;2022-12-07T07:16:52;2.72;97.51
12907;DHT22;6521;50.498;8.474;2022-12-07T07:19:23;2.74;97.56
12907;DHT22;6521;50.498;8.474;2022-12-07T07:21:54;2.72;97.64
12907;DHT22;6521;50.498;8.474;2022-12-07T07:24:25;2.71;97.57
12907;DHT22;6521;50.498;8.474;2022-12-07T07:26:55;2.72;97.57
12907;DHT22;6521;50.498;8.474;2022-12-07T07:29:26;2.74;97.60
12907;DHT22;6521;50.498;8.474;2022-12-07T07:31:57;2.69;97.68
12907;DHT22;6521;50.498;8.474;2022-12-07T07:34:28;2.69;97.78
12907;DHT22;6521;50.498;8.474;2022-12-07T07:36:58;2.71;97.68
12907;DHT22;6521;50.498;8.474;2022-12-07T07:39:29;2.68;97.65
12907;DHT22;6521;50.498;8.474;2022-12-07T07:42:00;2.66;97.65
12907;DHT22;6521;50.498;8.474;2022-12-07T07:44:31;2.64;97.71
12907;DHT22;6521;50.498;8.474;2022-12-07T07:47:03;2.65;97.77
12907;DHT22;6521;50.498;8.474;2022-12-07T07:49:34;2.66;97.80
12907;DHT22;6521;50.498;8.474;2022-12-07T07:52:05;2.64;97.82
12907;DHT22;6521;50.498;8.474;2022-12-07T07:54:36;2.66;97.82
12907;DHT22;6521;50.498;8.474;2022-12-07T07:57:07;2.66;97.85
12907;DHT22;6521;50.498;8.474;2022-12-07T07:59:38;2.68;97.86
12907;DHT22;6521;50.498;8.474;2022-12-07T08:02:16;2.68;97.89
12907;DHT22;6521;50.498;8.474;2022-12-07T08:04:47;2.66;97.87
12907;DHT22;6521;50.498;8.474;2022-12-07T08:07:18;2.74;97.96
12907;DHT22;6521;50.498;8.474;2022-12-07T08:09:49;2.75;97.97
12907;DHT22;6521;50.498;8.474;2022-12-07T08:12:20;2.78;97.99
12907;DHT22;6521;50.498;8.474;2022-12-07T08:14:51;2.81;97.80
12907;DHT22;6521;50.498;8.474;2022-12-07T08:17:22;2.81;97.77
12907;DHT22;6521;50.498;8.474;2022-12-07T08:19:53;2.79;97.81
12907;DHT22;6521;50.498;8.474;2022-12-07T08:22:23;2.85;97.78
12907;DHT22;6521;50.498;8.474;2022-12-07T08:24:54;2.79;97.67
12907;DHT22;6521;50.498;8.474;2022-12-07T08:27:25;2.81;97.54
12907;DHT22;6521;50.498;8.474;2022-12-07T08:29:57;2.77;97.52
12907;DHT22;6521;50.498;8.474;2022-12-07T08:32:28;2.79;97.41
12907;DHT22;6521;50.498;8.474;2022-12-07T08:34:59;2.78;97.43
12907;DHT22;6521;50.498;8.474;2022-12-07T08:37:29;2.84;97.49
12907;DHT22;6521;50.498;8.474;2022-12-07T08:40:03;2.89;97.43
12907;DHT22;6521;50.498;8.474;2022-12-07T08:42:34;2.91;97.30
12907;DHT22;6521;50.498;8.474;2022-12-07T08:45:12;2.89;97.25
12907;DHT22;6521;50.498;8.474;2022-12-07T08:48:04;2.89;96.90
12907;DHT22;6521;50.498;8.474;2022-12-07T08:50:37;2.93;96.90
12907;DHT22;6521;50.498;8.474;2022-12-07T08:53:08;2.91;96.87
12907;DHT22;6521;50.498;8.474;2022-12-07T08:55:39;2.92;96.81
12907;DHT22;6521;50.498;8.474;2022-12-07T08:58:10;2.88;96.82
12907;DHT22;6521;50.498;8.474;2022-12-07T09:00:41;2.89;96.92
12907;DHT22;6521;50.498;8.474;2022-12-07T09:03:12;2.89;96.89
12907;DHT22;6521;50.498;8.474;2022-12-07T09:05:43;2.96;96.93
12907;DHT22;6521;50.498;8.474;2022-12-07T09:08:14;2.98;96.80
12907;DHT22;6521;50.498;8.474;2022-12-07T09:10:45;3.02;96.71
12907;DHT22;6521;50.498;8.474;2022-12-07T09:13:15;3.06;96.81
12907;DHT22;6521;50.498;8.474;2022-12-07T09:15:46;3.12;96.75
12907;DHT22;6521;50.498;8.474;2022-12-07T09:18:17;3.17;96.83
12907;DHT22;6521;50.498;8.474;2022-12-07T09:20:48;3.24;96.70
12907;DHT22;6521;50.498;8.474;2022-12-07T09:23:19;3.30;96.68
12907;DHT22;6521;50.498;8.474;2022-12-07T09:25:50;3.34;96.54
12907;DHT22;6521;50.498;8.474;2022-12-07T09:28:22;3.38;96.30
12907;DHT22;6521;50.498;8.474;2022-12-07T09:30:53;3.38;96.11
12907;DHT22;6521;50.498;8.474;2022-12-07T09:33:26;3.46;96.15
12907;DHT22;6521;50.498;8.474;2022-12-07T09:35:57;3.53;95.91
12907;DHT22;6521;50.498;8.474;2022-12-07T09:38:28;3.58;95.44
12907;DHT22;6521;50.498;8.474;2022-12-07T09:41:07;3.67;95.37
12907;DHT22;6521;50.498;8.474;2022-12-07T09:43:38;3.74;95.01
12907;DHT22;6521;50.498;8.474;2022-12-07T09:46:16;3.74;94.37
12907;DHT22;6521;50.498;8.474;2022-12-07T09:48:49;3.67;94.30
12907;DHT22;6521;50.498;8.474;2022-12-07T09:51:22;3.68;93.74
12907;DHT22;6521;50.498;8.474;2022-12-07T09:53:56;3.81;94.25
12907;DHT22;6521;50.498;8.474;2022-12-07T09:56:29;4.29;94.02
12907;DHT22;6521;50.498;8.474;2022-12-07T09:59:02;4.70;93.37
12907;DHT22;6521;50.498;8.474;2022-12-07T10:01:33;4.99;91.54
12907;DHT22;6521;50.498;8.474;2022-12-07T10:04:20;4.99;90.39
12907;DHT22;6521;50.498;8.474;2022-12-07T10:06:52;4.85;89.88
12907;DHT22;6521;50.498;8.474;2022-12-07T10:09:23;4.80;89.48
12907;DHT22;6521;50.498;8.474;2022-12-07T10:12:06;4.71;89.64
12907;DHT22;6521;50.498;8.474;2022-12-07T10:14:57;4.53;89.54
12907;DHT22;6521;50.498;8.474;2022-12-07T10:17:39;4.36;90.22
12907;DHT22;6521;50.498;8.474;2022-12-07T10:20:22;4.26;90.40
12907;DHT22;6521;50.498;8.474;2022-12-07T10:23:13;4.22;91.18
12907;DHT22;6521;50.498;8.474;2022-12-07T10:25:44;4.23;91.25
12907;DHT22;6521;50.498;8.474;2022-12-07T10:28:17;4.20;91.31
12907;DHT22;6521;50.498;8.474;2022-12-07T10:36:36;4.57;90.45
12907;DHT22;6521;50.498;8.474;2022-12-07T10:39:28;4.70;90.37
12907;DHT22;6521;50.498;8.474;2022-12-07T10:42:01;4.81;89.14
12907;DHT22;6521;50.498;8.474;2022-12-07T10:44:34;4.71;89.28
12907;DHT22;6521;50.498;8.474;2022-12-07T10:47:21;4.74;89.65
12907;DHT22;6521;50.498;8.474;2022-12-07T11:07:28;4.43;90.63
12907;DHT22;6521;50.498;8.474;2022-12-07T11:10:18;4.37;90.51
12907;DHT22;6521;50.498;8.474;2022-12-07T11:29:51;4.10;90.44
12907;DHT22;6521;50.498;8.474;2022-12-07T11:33:04;4.10;90.75
12907;DHT22;6521;50.498;8.474;2022-12-07T11:38:23;4.06;91.09
12907;DHT22;6521;50.498;8.474;2022-12-07T11:41:00;4.03;91.39
12907;DHT22;6521;50.498;8.474;2022-12-07T11:43:53;4.12;91.65
12907;DHT22;6521;50.498;8.474;2022-12-07T11:46:28;4.26;91.51
12907;DHT22;6521;50.498;8.474;2022-12-07T11:51:53;4.35;91.17
12907;DHT22;6521;50.498;8.474;2022-12-07T11:54:32;4.37;90.96
12907;DHT22;6521;50.498;8.474;2022-12-07T11:57:22;4.35;89.91
12907;DHT22;6521;50.498;8.474;2022-12-07T12:00:01;4.30;88.89
12907;DHT22;6521;50.498;8.474;2022-12-07T12:02:49;4.22;88.89
12907;DHT22;6521;50.498;8.474;2022-12-07T12:05:22;4.22;89.13
12907;DHT22;6521;50.498;8.474;2022-12-07T12:08:16;4.57;89.30
12907;DHT22;6521;50.498;8.474;2022-12-07T12:19:35;5.80;81.09
12907;DHT22;6521;50.498;8.474;2022-12-07T12:22:19;6.00;79.82
12907;DHT22;6521;50.498;8.474;2022-12-07T12:24:53;6.03;79.68
12907;DHT22;6521;50.498;8.474;2022-12-07T12:27:30;6.11;78.37
12907;DHT22;6521;50.498;8.474;2022-12-07T12:30:29;6.22;77.57
12907;DHT22;6521;50.498;8.474;2022-12-07T12:35:37;6.49;78.00
12907;DHT22;6521;50.498;8.474;2022-12-07T12:38:27;6.62;76.18
12907;DHT22;6521;50.498;8.474;2022-12-07T12:41:01;6.62;76.82
12907;DHT22;6521;50.498;8.474;2022-12-07T12:43:59;6.66;76.98
12907;DHT22;6521;50.498;8.474;2022-12-07T12:49:25;6.76;76.47
12907;DHT22;6521;50.498;8.474;2022-12-07T12:55:12;6.80;76.71
12907;DHT22;6521;50.498;8.474;2022-12-07T12:57:43;6.92;74.97
12907;DHT22;6521;50.498;8.474;2022-12-07T13:00:22;6.87;76.03
12907;DHT22;6521;50.498;8.474;2022-12-07T13:02:55;6.89;75.29
12907;DHT22;6521;50.498;8.474;2022-12-07T13:05:28;6.86;75.72
12907;DHT22;6521;50.498;8.474;2022-12-07T13:10:46;6.79;75.90
12907;DHT22;6521;50.498;8.474;2022-12-07T13:18:37;5.95;77.63
12907;DHT22;6521;50.498;8.474;2022-12-07T13:31:48;5.31;80.50
12907;DHT22;6521;50.498;8.474;2022-12-07T13:34:40;5.24;80.72
12907;DHT22;6521;50.498;8.474;2022-12-07T13:37:18;5.18;81.03
12907;DHT22;6521;50.498;8.474;2022-12-07T13:39:54;5.08;80.89
12907;DHT22;6521;50.498;8.474;2022-12-07T13:42:34;5.05;81.72
12907;DHT22;6521;50.498;8.474;2022-12-07T13:45:23;5.07;82.37
12907;DHT22;6521;50.498;8.474;2022-12-07T13:48:31;5.18;82.52
12907;DHT22;6521;50.498;8.474;2022-12-07T13:51:04;5.11;82.03
12907;DHT22;6521;50.498;8.474;2022-12-07T13:53:46;5.14;82.21
12907;DHT22;6521;50.498;8.474;2022-12-07T13:56:17;5.26;82.12
12907;DHT22;6521;50.498;8.474;2022-12-07T13:58:48;5.29;81.55
12907;DHT22;6521;50.498;8.474;2022-12-07T14:01:19;5.28;81.61
12907;DHT22;6521;50.498;8.474;2022-12-07T14:03:50;5.24;81.65
12907;DHT22;6521;50.498;8.474;2022-12-07T14:06:24;5.09;81.59
12907;DHT22;6521;50.498;8.474;2022-12-07T14:09:17;4.94;82.27
12907;DHT22;6521;50.498;8.474;2022-12-07T14:11:50;4.88;82.72
12907;DHT22;6521;50.498;8.474;2022-12-07T14:14:30;4.87;82.72
12907;DHT22;6521;50.498;8.474;2022-12-07T14:17:15;4.76;82.98
12907;DHT22;6521;50.498;8.474;2022-12-07T14:25:20;4.56;83.88
12907;DHT22;6521;50.498;8.474;2022-12-07T14:27:59;4.50;84.15
12907;DHT22;6521;50.498;8.474;2022-12-07T14:30:32;4.43;84.48
12907;DHT22;6521;50.498;8.474;2022-12-07T14:33:04;4.40;84.63
12907;DHT22;6521;50.498;8.474;2022-12-07T14:35:37;4.36;84.78
12907;DHT22;6521;50.498;8.474;2022-12-07T14:38:10;4.32;85.00
12907;DHT22;6521;50.498;8.474;2022-12-07T14:40:41;4.28;85.24
12907;DHT22;6521;50.498;8.474;2022-12-07T14:43:15;4.26;85.41
12907;DHT22;6521;50.498;8.474;2022-12-07T14:45:46;4.16;85.64
12907;DHT22;6521;50.498;8.474;2022-12-07T14:48:17;4.13;86.07
12907;DHT22;6521;50.498;8.474;2022-12-07T14:50:52;4.13;85.70
12907;DHT22;6521;50.498;8.474;2022-12-07T14:53:31;4.06;86.06
12907;DHT22;6521;50.498;8.474;2022-12-07T14:56:04;4.01;85.91
12907;DHT22;6521;50.498;8.474;2022-12-07T14:58:39;3.94;85.47
12907;DHT22;6521;50.498;8.474;2022-12-07T15:01:10;3.96;85.52
12907;DHT22;6521;50.498;8.474;2022-12-07T15:03:41;3.88;85.92
12907;DHT22;6521;50.498;8.474;2022-12-07T15:06:17;3.84;86.09
12907;DHT22;6521;50.498;8.474;2022-12-07T15:08:49;3.82;86.09
12907;DHT22;6521;50.498;8.474;2022-12-07T15:11:19;3.77;86.06
12907;DHT22;6521;50.498;8.474;2022-12-07T15:13:50;3.66;86.37
12907;DHT22;6521;50.498;8.474;2022-12-07T15:16:41;3.57;86.44
12907;DHT22;6521;50.498;8.474;2022-12-07T15:19:23;3.57;86.74
12907;DHT22;6521;50.498;8.474;2022-12-07T15:21:57;3.57;86.56
12907;DHT22;6521;50.498;8.474;2022-12-07T15:24:28;3.54;86.92
12907;DHT22;6521;50.498;8.474;2022-12-07T15:26:59;3.51;86.88
12907;DHT22;6521;50.498;8.474;2022-12-07T15:29:31;3.44;86.63
12907;DHT22;6521;50.498;8.474;2022-12-07T15:32:02;3.44;87.00
12907;DHT22;6521;50.498;8.474;2022-12-07T15:34:32;3.43;87.27
12907;DHT22;6521;50.498;8.474;2022-12-07T15:37:03;3.38;87.47
12907;DHT22;6521;50.498;8.474;2022-12-07T15:39:35;3.34;87.50
12907;DHT22;6521;50.498;8.474;2022-12-07T15:42:06;3.29;87.75
12907;DHT22;6521;50.498;8.474;2022-12-07T15:44:37;3.33;87.93
12907;DHT22;6521;50.498;8.474;2022-12-07T15:47:26;3.27;88.29
12907;DHT22;6521;50.498;8.474;2022-12-07T15:49:57;3.22;88.70
12907;DHT22;6521;50.498;8.474;2022-12-07T15:52:28;3.17;88.89
12907;DHT22;6521;50.498;8.474;2022-12-07T15:54:59;3.17;89.19
12907;DHT22;6521;50.498;8.474;2022-12-07T15:57:37;3.20;89.26
12907;DHT22;6521;50.498;8.474;2022-12-07T16:00:08;3.17;89.16
12907;DHT22;6521;50.498;8.474;2022-12-07T16:02:40;3.19;89.26
12907;DHT22;6521;50.498;8.474;2022-12-07T16:05:11;3.23;89.23
12907;DHT22;6521;50.498;8.474;2022-12-07T16:07:42;3.26;89.22
12907;DHT22;6521;50.498;8.474;2022-12-07T16:10:12;3.22;89.09
12907;DHT22;6521;50.498;8.474;2022-12-07T16:12:43;3.19;89.31
12907;DHT22;6521;50.498;8.474;2022-12-07T16:15:14;3.17;89.53
12907;DHT22;6521;50.498;8.474;2022-12-07T16:17:45;3.22;89.50
12907;DHT22;6521;50.498;8.474;2022-12-07T16:20:16;3.15;89.73
12907;DHT22;6521;50.498;8.474;2022-12-07T16:22:46;3.15;89.89
12907;DHT22;6521;50.498;8.474;2022-12-07T16:25:18;3.15;90.10
12907;DHT22;6521;50.498;8.474;2022-12-07T16:27:48;3.13;90.33
12907;DHT22;6521;50.498;8.474;2022-12-07T16:30:20;3.10;90.46
12907;DHT22;6521;50.498;8.474;2022-12-07T16:32:51;3.09;90.83
12907;DHT22;6521;50.498;8.474;2022-12-07T16:35:22;3.09;90.86
12907;DHT22;6521;50.498;8.474;2022-12-07T16:37:52;3.10;90.93
12907;DHT22;6521;50.498;8.474;2022-12-07T16:40:23;3.12;91.06
12907;DHT22;6521;50.498;8.474;2022-12-07T16:42:54;3.09;91.24
12907;DHT22;6521;50.498;8.474;2022-12-07T16:45:24;3.10;91.34
12907;DHT22;6521;50.498;8.474;2022-12-07T16:47:55;3.10;91.36
12907;DHT22;6521;50.498;8.474;2022-12-07T16:50:26;3.10;91.52
12907;DHT22;6521;50.498;8.474;2022-12-07T16:52:56;3.09;91.53
12907;DHT22;6521;50.498;8.474;2022-12-07T16:55:27;3.08;91.73
12907;DHT22;6521;50.498;8.474;2022-12-07T16:57:58;3.09;91.63
12907;DHT22;6521;50.498;8.474;2022-12-07T17:00:29;3.08;91.74
12907;DHT22;6521;50.498;8.474;2022-12-07T17:02:59;3.02;91.90
12907;DHT22;6521;50.498;8.474;2022-12-07T17:05:30;3.06;91.84
12907;DHT22;6521;50.498;8.474;2022-12-07T17:08:01;3.06;92.06
12907;DHT22;6521;50.498;8.474;2022-12-07T17:10:36;3.08;92.06
12907;DHT22;6521;50.498;8.474;2022-12-07T17:13:09;3.00;92.30
12907;DHT22;6521;50.498;8.474;2022-12-07T17:16:03;3.00;92.31
12907;DHT22;6521;50.498;8.474;2022-12-07T17:18:35;3.02;92.42
12907;DHT22;6521;50.498;8.474;2022-12-07T17:21:08;3.05;92.29
12907;DHT22;6521;50.498;8.474;2022-12-07T17:23:39;2.98;92.49
12907;DHT22;6521;50.498;8.474;2022-12-07T17:26:16;2.92;92.73
12907;DHT22;6521;50.498;8.474;2022-12-07T17:28:47;3.00;92.84
12907;DHT22;6521;50.498;8.474;2022-12-07T17:31:21;2.93;92.74
12907;DHT22;6521;50.498;8.474;2022-12-07T17:33:52;2.95;92.82
12907;DHT22;6521;50.498;8.474;2022-12-07T17:36:25;2.96;92.72
12907;DHT22;6521;50.498;8.474;2022-12-07T17:38:57;2.92;92.99
12907;DHT22;6521;50.498;8.474;2022-12-07T17:41:28;2.92;92.92
12907;DHT22;6521;50.498;8.474;2022-12-07T17:44:18;2.87;92.97
12907;DHT22;6521;50.498;8.474;2022-12-07T17:46:51;2.81;93.23
12907;DHT22;6521;50.498;8.474;2022-12-07T17:49:27;2.82;93.20
12907;DHT22;6521;50.498;8.474;2022-12-07T17:51:58;2.82;93.31
12907;DHT22;6521;50.498;8.474;2022-12-07T17:54:47;2.82;93.37
12907;DHT22;6521;50.498;8.474;2022-12-07T17:57:18;2.84;93.35
12907;DHT22;6521;50.498;8.474;2022-12-07T17:59:49;2.85;93.33
12907;DHT22;6521;50.498;8.474;2022-12-07T18:02:23;2.81;93.46
12907;DHT22;6521;50.498;8.474;2022-12-07T18:04:54;2.81;93.59
12907;DHT22;6521;50.498;8.474;2022-12-07T18:07:25;2.81;93.54
12907;DHT22;6521;50.498;8.474;2022-12-07T18:09:56;2.85;93.71
12907;DHT22;6521;50.498;8.474;2022-12-07T18:12:27;2.84;93.85
12907;DHT22;6521;50.498;8.474;2022-12-07T18:14:58;2.82;93.82
12907;DHT22;6521;50.498;8.474;2022-12-07T18:17:28;2.87;93.79
12907;DHT22;6521;50.498;8.474;2022-12-07T18:19:59;2.85;93.88
12907;DHT22;6521;50.498;8.474;2022-12-07T18:22:30;2.89;93.92
12907;DHT22;6521;50.498;8.474;2022-12-07T18:25:01;2.96;93.78
12907;DHT22;6521;50.498;8.474;2022-12-07T18:27:31;2.93;93.89
12907;DHT22;6521;50.498;8.474;2022-12-07T18:30:02;2.93;93.78
12907;DHT22;6521;50.498;8.474;2022-12-07T18:32:33;2.92;93.62
12907;DHT22;6521;50.498;8.474;2022-12-07T18:35:04;2.92;93.83
12907;DHT22;6521;50.498;8.474;2022-12-07T18:37:35;2.89;93.92
12907;DHT22;6521;50.498;8.474;2022-12-07T18:40:06;2.87;93.96